Terminal Aerodrome Forecast
Issued by NWS Twin Cities, MN

Home | Current Version | Previous Version | Text Only | Print | Product List | Glossary Off
Versions: 1 2 3 4 5 6 7 8 9 10 11 12 13 14 15 16 17 18 19 20

173
FTUS43 KMPX 282320
TAFEAU
TAF
KEAU 282320Z 2900/2924 07004KT P6SM SCT250
     FM290900 VRB03KT 4SM BR SCT010
      TEMPO 2909/2912 1SM BR BKN003
     FM291400 08007KT P6SM SCT030 OVC250=

USA.gov is the U.S. government's official web portal to all federal, state and local government web resources and services.